Time;durP1;ratioP1;P1;durP2;ratioP2;P2;SDS_P1;SDS_P2;PMS_P1;PMS_P2;Temp;Humidity;BMP_temperature;BMP_pressure;BME280_temperature;BME280_humidity;BME280_pressure;Samples;Min_cycle;Max_cycle;Signal;HPM_P1;HPM_P2
2023/03/14 00:00:57;;;;;;;0.70;0.20;;;10.30;99.90;;;;;;5096069;28;20452;-56
2023/03/14 00:03:26;;;;;;;0.40;0.10;;;10.20;99.90;;;;;;5096459;28;20420;-56
2023/03/14 00:05:53;;;;;;;0.50;0.10;;;10.20;99.90;;;;;;5097065;28;20481;-58
2023/03/14 00:08:21;;;;;;;0.73;0.10;;;10.20;99.90;;;;;;5096328;28;20410;-58
2023/03/14 00:10:48;;;;;;;0.40;0.10;;;10.20;99.90;;;;;;5095977;28;20418;-58
2023/03/14 00:13:15;;;;;;;0.40;0.10;;;10.30;99.90;;;;;;5095904;28;20457;-57
2023/03/14 00:15:42;;;;;;;0.47;0.10;;;10.20;99.90;;;;;;5096327;28;20436;-58
2023/03/14 00:18:09;;;;;;;0.30;0.10;;;10.20;99.90;;;;;;5096459;28;20433;-60
2023/03/14 00:20:38;;;;;;;0.30;0.10;;;10.30;99.90;;;;;;5095885;28;20422;-59
2023/03/14 00:23:05;;;;;;;0.40;0.20;;;10.30;99.90;;;;;;5095157;28;20499;-58
2023/03/14 00:25:32;;;;;;;0.40;0.10;;;10.30;99.90;;;;;;5094656;28;20433;-57
2023/03/14 00:27:59;;;;;;;0.30;0.10;;;10.30;99.90;;;;;;5095795;28;20541;-59
2023/03/14 00:30:27;;;;;;;0.30;0.10;;;10.20;99.90;;;;;;5095503;28;20424;-58
2023/03/14 00:32:54;;;;;;;0.68;0.10;;;10.20;99.90;;;;;;5095816;28;20426;-57
2023/03/14 00:35:21;;;;;;;0.30;0.10;;;10.20;99.90;;;;;;5096026;28;20425;-58
2023/03/14 00:37:49;;;;;;;0.70;0.10;;;10.20;99.90;;;;;;5095914;28;20430;-59
2023/03/14 00:40:17;;;;;;;0.30;0.10;;;10.30;99.90;;;;;;5094399;28;20433;-59
2023/03/14 00:42:44;;;;;;;0.30;0.10;;;10.30;99.90;;;;;;5095610;28;20437;-58
2023/03/14 00:45:11;;;;;;;0.40;0.20;;;10.30;99.90;;;;;;5094515;28;20414;-57
2023/03/14 00:47:38;;;;;;;0.80;0.20;;;10.30;99.90;;;;;;5092368;28;20508;-58
2023/03/14 00:50:07;;;;;;;0.40;0.20;;;10.40;99.90;;;;;;5083714;28;20499;-58
2023/03/14 00:52:34;;;;;;;0.30;0.10;;;10.30;99.90;;;;;;5074118;28;20431;-59
2023/03/14 00:55:02;;;;;;;0.40;0.10;;;10.40;99.90;;;;;;5075250;28;20420;-59
2023/03/14 00:57:30;;;;;;;0.30;0.10;;;10.40;99.90;;;;;;5074067;28;20439;-57
2023/03/14 00:59:57;;;;;;;0.30;0.10;;;10.50;99.90;;;;;;5074258;28;20418;-59
2023/03/14 01:02:24;;;;;;;0.40;0.20;;;10.40;99.90;;;;;;5074803;28;20419;-58
2023/03/14 01:04:51;;;;;;;0.30;0.17;;;10.40;99.90;;;;;;5074239;28;20462;-58
2023/03/14 01:07:18;;;;;;;0.98;0.10;;;10.40;99.90;;;;;;5074239;28;20451;-59
2023/03/14 01:09:45;;;;;;;0.90;0.10;;;10.30;99.90;;;;;;5088908;28;20440;-59
2023/03/14 01:12:14;;;;;;;0.30;0.10;;;10.30;99.90;;;;;;5094390;28;20898;-58
2023/03/14 01:14:41;;;;;;;0.50;0.10;;;10.40;99.90;;;;;;5094589;28;20456;-58
2023/03/14 01:17:08;;;;;;;0.50;0.10;;;10.50;99.90;;;;;;5093572;28;20426;-60
2023/03/14 01:19:35;;;;;;;0.30;0.10;;;10.50;99.90;;;;;;5094626;28;20712;-57
2023/03/14 01:22:02;;;;;;;0.40;0.10;;;10.40;99.90;;;;;;5095979;28;20422;-58
2023/03/14 01:24:29;;;;;;;0.40;0.10;;;10.40;99.90;;;;;;5093853;28;20418;-59
2023/03/14 01:26:56;;;;;;;0.30;0.10;;;10.40;99.90;;;;;;5094015;28;20456;-57
2023/03/14 01:29:25;;;;;;;0.40;0.10;;;10.50;99.90;;;;;;5092781;28;20476;-58
2023/03/14 01:31:52;;;;;;;0.40;0.10;;;10.50;99.90;;;;;;5093789;28;20430;-57
2023/03/14 01:34:19;;;;;;;0.38;0.10;;;10.50;99.90;;;;;;5093702;28;21099;-59
2023/03/14 01:36:46;;;;;;;0.40;0.10;;;10.40;99.90;;;;;;5080156;28;20435;-58
2023/03/14 01:39:14;;;;;;;0.30;0.10;;;10.40;99.90;;;;;;5076174;28;20425;-60
2023/03/14 01:41:41;;;;;;;0.60;0.10;;;10.50;99.90;;;;;;5093114;28;20436;-59
2023/03/14 01:44:11;;;;;;;0.60;0.20;;;10.50;99.90;;;;;;5094933;28;20428;-59
2023/03/14 01:46:41;;;;;;;0.80;0.30;;;10.40;99.90;;;;;;5094876;28;20483;-58
2023/03/14 01:49:15;;;;;;;0.80;0.10;;;10.50;99.90;;;;;;5093493;28;20430;-59
2023/03/14 01:51:47;;;;;;;0.40;0.10;;;10.50;99.90;;;;;;5094634;28;20426;-58
2023/03/14 01:54:20;;;;;;;0.30;0.10;;;10.50;99.90;;;;;;5095043;28;20414;-57
2023/03/14 01:56:51;;;;;;;0.45;0.10;;;10.40;99.90;;;;;;5094413;28;20813;-58
2023/03/14 01:59:19;;;;;;;0.30;0.10;;;10.30;99.90;;;;;;5093900;28;20425;-57
2023/03/14 02:01:50;;;;;;;0.30;0.10;;;10.30;99.90;;;;;;5095027;28;20433;-59
2023/03/14 02:04:19;;;;;;;0.30;0.10;;;10.40;99.90;;;;;;5094864;28;20426;-59
2023/03/14 02:06:51;;;;;;;0.30;0.10;;;10.40;99.90;;;;;;5094754;28;20728;-58
2023/03/14 02:09:19;;;;;;;0.40;0.10;;;10.40;99.90;;;;;;5098805;28;20421;-59
2023/03/14 02:11:46;;;;;;;0.50;0.10;;;10.40;99.90;;;;;;5098216;28;20459;-59
2023/03/14 02:14:25;;;;;;;0.40;0.10;;;10.50;99.90;;;;;;5098137;28;20424;-58
2023/03/14 02:16:54;;;;;;;0.30;0.20;;;10.50;99.90;;;;;;5098451;28;20426;-58
2023/03/14 02:19:31;;;;;;;0.67;0.13;;;10.50;99.90;;;;;;5098422;28;20741;-60
2023/03/14 02:22:03;;;;;;;0.30;0.10;;;10.50;99.90;;;;;;5098578;28;20422;-59
2023/03/14 02:24:39;;;;;;;0.40;0.10;;;10.50;99.90;;;;;;5098494;28;20420;-59
2023/03/14 02:27:12;;;;;;;0.90;0.10;;;10.40;99.90;;;;;;5098627;28;20434;-59
2023/03/14 02:29:46;;;;;;;0.38;0.10;;;10.40;99.90;;;;;;5098356;28;20420;-59
2023/03/14 02:32:15;;;;;;;0.40;0.10;;;10.40;99.90;;;;;;5097714;28;20487;-61
2023/03/14 02:34:46;;;;;;;0.50;0.10;;;10.30;99.90;;;;;;5098014;28;20428;-60
2023/03/14 02:37:15;;;;;;;0.30;0.10;;;10.30;99.90;;;;;;5098135;28;20428;-59
2023/03/14 02:39:45;;;;;;;0.57;0.10;;;10.20;99.90;;;;;;5098273;28;20425;-60
2023/03/14 02:42:14;;;;;;;0.30;0.10;;;10.20;99.90;;;;;;5098267;28;20449;-60
2023/03/14 02:44:54;;;;;;;0.40;0.20;;;10.20;99.90;;;;;;5098060;28;20740;-59
2023/03/14 02:47:27;;;;;;;0.30;0.10;;;10.10;99.90;;;;;;5098588;28;20433;-59
2023/03/14 02:50:01;;;;;;;0.30;0.10;;;10.20;99.90;;;;;;5097513;28;20480;-59
2023/03/14 02:52:28;;;;;;;0.30;0.10;;;10.20;99.90;;;;;;5097585;28;20421;-59
2023/03/14 02:54:55;;;;;;;0.50;0.10;;;10.20;99.90;;;;;;5096868;28;20475;-59
2023/03/14 02:57:24;;;;;;;0.30;0.10;;;10.20;99.90;;;;;;5096881;28;20432;-59
2023/03/14 02:59:51;;;;;;;0.40;0.10;;;10.10;99.90;;;;;;5096582;28;20413;-61
2023/03/14 03:02:18;;;;;;;0.30;0.10;;;10.20;99.90;;;;;;5096652;28;20457;-59
2023/03/14 03:04:45;;;;;;;0.30;0.10;;;10.20;99.90;;;;;;5096682;28;20979;-60
2023/03/14 03:07:13;;;;;;;0.30;0.10;;;10.20;99.90;;;;;;5096905;28;21100;-60
2023/03/14 03:09:40;;;;;;;0.30;0.10;;;10.20;99.90;;;;;;5097166;28;20509;-59
2023/03/14 03:12:07;;;;;;;0.30;0.10;;;10.20;99.90;;;;;;5097989;28;20425;-60
2023/03/14 03:14:37;;;;;;;0.40;0.10;;;10.20;99.90;;;;;;5097159;28;20493;-60
2023/03/14 03:17:04;;;;;;;0.40;0.10;;;10.30;99.90;;;;;;5097179;28;20461;-61
2023/03/14 03:19:32;;;;;;;0.40;0.20;;;10.30;99.90;;;;;;5096347;28;20430;-60
2023/03/14 03:21:59;;;;;;;0.40;0.10;;;10.30;99.90;;;;;;5097124;28;20756;-60
2023/03/14 03:24:26;;;;;;;0.30;0.10;;;10.30;99.90;;;;;;5096683;28;20413;-60
2023/03/14 03:26:54;;;;;;;0.30;0.10;;;10.20;99.90;;;;;;5096135;28;20725;-60
2023/03/14 03:29:21;;;;;;;0.38;0.10;;;10.30;99.90;;;;;;5096513;28;20424;-60
2023/03/14 03:31:49;;;;;;;0.30;0.10;;;10.20;99.90;;;;;;5096710;28;20426;-60
2023/03/14 03:34:17;;;;;;;1.00;0.20;;;10.20;99.90;;;;;;5096778;28;20417;-60
2023/03/14 03:36:44;;;;;;;0.30;0.10;;;10.20;99.90;;;;;;5097146;28;20861;-60
2023/03/14 03:39:11;;;;;;;0.40;0.10;;;10.30;99.90;;;;;;5096376;28;20437;-60
2023/03/14 03:41:38;;;;;;;0.70;0.20;;;10.30;99.90;;;;;;5097286;28;20425;-61
2023/03/14 03:44:06;;;;;;;0.30;0.10;;;10.20;99.90;;;;;;5096188;28;20425;-60
2023/03/14 03:46:34;;;;;;;0.60;0.20;;;10.30;99.90;;;;;;5095387;28;20449;-60
2023/03/14 03:49:02;;;;;;;1.33;0.10;;;10.20;99.90;;;;;;5095384;28;20418;-61
2023/03/14 03:51:29;;;;;;;0.32;0.20;;;10.20;99.90;;;;;;5095814;28;20991;-61
2023/03/14 03:53:58;;;;;;;0.40;0.20;;;10.20;99.90;;;;;;5096349;28;20453;-60
2023/03/14 03:56:25;;;;;;;0.70;0.17;;;10.20;99.90;;;;;;5096682;28;20434;-60
2023/03/14 03:58:52;;;;;;;0.87;0.20;;;10.20;99.90;;;;;;5096114;28;20738;-60
2023/03/14 04:01:19;;;;;;;0.80;0.15;;;10.20;99.90;;;;;;5096461;28;20432;-60
2023/03/14 04:03:46;;;;;;;0.40;0.20;;;10.20;99.90;;;;;;5097124;28;20461;-59
2023/03/14 04:06:15;;;;;;;0.80;0.20;;;10.20;99.90;;;;;;5096390;28;20425;-59
2023/03/14 04:08:43;;;;;;;0.47;0.10;;;10.20;99.90;;;;;;5094880;28;20493;-59
2023/03/14 04:11:10;;;;;;;0.50;0.20;;;10.10;99.90;;;;;;5075836;28;20432;-60
2023/03/14 04:13:37;;;;;;;0.50;0.20;;;10.20;99.90;;;;;;5076148;28;20415;-60
2023/03/14 04:16:10;;;;;;;0.60;0.20;;;10.10;99.90;;;;;;5076802;28;20454;-61
2023/03/14 04:18:38;;;;;;;0.90;0.20;;;10.10;99.90;;;;;;5092382;28;20436;-60
2023/03/14 04:21:05;;;;;;;1.20;0.20;;;10.00;99.90;;;;;;5095764;28;20815;-61
2023/03/14 04:23:34;;;;;;;0.60;0.20;;;10.00;99.90;;;;;;5095126;28;20422;-61
2023/03/14 04:26:01;;;;;;;0.70;0.27;;;10.00;99.90;;;;;;5093383;28;20853;-61
2023/03/14 04:28:28;;;;;;;1.00;0.20;;;10.00;99.90;;;;;;5095707;28;20414;-61
2023/03/14 04:30:56;;;;;;;0.30;0.20;;;10.00;99.90;;;;;;5094468;28;20906;-61
2023/03/14 04:33:23;;;;;;;0.60;0.20;;;9.90;99.90;;;;;;5094349;28;20409;-61
2023/03/14 04:35:54;;;;;;;0.65;0.20;;;10.00;99.90;;;;;;5091654;28;20857;-61
2023/03/14 04:38:22;;;;;;;1.30;0.20;;;9.90;99.90;;;;;;5092884;28;20430;-61
2023/03/14 04:40:50;;;;;;;1.10;0.20;;;9.90;99.90;;;;;;5094438;28;20418;-61
2023/03/14 04:43:18;;;;;;;0.50;0.20;;;10.00;99.90;;;;;;5094864;28;20910;-62
2023/03/14 04:45:45;;;;;;;1.60;0.20;;;9.90;99.90;;;;;;5094943;28;20421;-61
2023/03/14 04:48:12;;;;;;;1.40;0.40;;;10.00;99.90;;;;;;5094142;28;20410;-60
2023/03/14 04:50:39;;;;;;;0.90;0.20;;;9.90;99.90;;;;;;5094890;28;20893;-60
2023/03/14 04:53:06;;;;;;;0.87;0.20;;;9.90;99.90;;;;;;5095002;28;20464;-61
2023/03/14 04:55:34;;;;;;;0.43;0.15;;;9.90;99.90;;;;;;5095694;28;20520;-63
2023/03/14 04:58:03;;;;;;;1.20;0.20;;;9.90;99.90;;;;;;5096160;28;20425;-61
2023/03/14 05:00:30;;;;;;;0.68;0.20;;;9.90;99.90;;;;;;5095789;28;20410;-63
2023/03/14 05:02:57;;;;;;;0.60;0.20;;;9.80;99.90;;;;;;5095421;28;20853;-63
2023/03/14 05:05:24;;;;;;;1.27;0.20;;;9.80;99.90;;;;;;5094864;28;20421;-63
2023/03/14 05:07:51;;;;;;;1.10;0.20;;;9.70;99.90;;;;;;5096037;28;20477;-63
2023/03/14 05:10:19;;;;;;;0.50;0.15;;;9.80;99.90;;;;;;5095325;28;20414;-63
2023/03/14 05:12:46;;;;;;;1.33;0.30;;;9.70;99.90;;;;;;5095225;28;20432;-64
2023/03/14 05:15:14;;;;;;;0.93;0.25;;;9.70;99.90;;;;;;5094732;28;20717;-65
2023/03/14 05:17:41;;;;;;;0.90;0.30;;;9.70;99.90;;;;;;5094017;28;20430;-62
2023/03/14 05:20:12;;;;;;;0.50;0.20;;;9.60;99.90;;;;;;5093743;28;20429;-62
2023/03/14 05:22:40;;;;;;;1.13;0.20;;;9.60;99.90;;;;;;5094436;28;20938;-62
2023/03/14 05:25:08;;;;;;;0.70;0.20;;;9.60;99.90;;;;;;5094737;28;20414;-63
2023/03/14 05:27:35;;;;;;;0.40;0.20;;;9.60;99.90;;;;;;5094868;28;20829;-62
2023/03/14 05:30:03;;;;;;;0.40;0.20;;;9.60;99.90;;;;;;5095204;28;20433;-62
2023/03/14 05:32:32;;;;;;;1.00;0.20;;;9.60;99.90;;;;;;5095258;28;20436;-63
2023/03/14 05:34:59;;;;;;;0.70;0.20;;;9.60;99.90;;;;;;5095568;28;20423;-63
2023/03/14 05:37:27;;;;;;;0.40;0.20;;;9.60;99.90;;;;;;5095136;28;21009;-64
2023/03/14 05:39:54;;;;;;;1.40;0.20;;;9.60;99.90;;;;;;5094147;28;20433;-64
2023/03/14 05:42:21;;;;;;;0.47;0.20;;;9.60;99.90;;;;;;5094542;28;20430;-64
2023/03/14 05:44:48;;;;;;;0.70;0.20;;;9.60;99.90;;;;;;5094635;28;20428;-63
2023/03/14 05:47:15;;;;;;;0.70;0.20;;;9.60;99.90;;;;;;5095103;28;20732;-62
2023/03/14 05:49:44;;;;;;;0.80;0.20;;;9.60;99.90;;;;;;5094378;28;20809;-62
2023/03/14 05:52:11;;;;;;;2.30;0.40;;;9.70;99.90;;;;;;5094669;28;20432;-63
2023/03/14 05:54:38;;;;;;;1.20;0.60;;;9.60;99.90;;;;;;5095095;28;20714;-63
2023/03/14 05:57:05;;;;;;;0.70;0.20;;;9.60;99.90;;;;;;5093708;28;20431;-63
2023/03/14 05:59:33;;;;;;;0.60;0.20;;;9.60;99.90;;;;;;5093767;28;20845;-64
2023/03/14 06:02:00;;;;;;;0.60;0.30;;;9.60;99.90;;;;;;5095075;28;20483;-63
2023/03/14 06:04:27;;;;;;;1.25;0.20;;;9.70;99.90;;;;;;5093560;28;20908;-63
2023/03/14 06:06:55;;;;;;;0.60;0.20;;;9.60;99.90;;;;;;5094072;28;20436;-62
2023/03/14 06:09:23;;;;;;;0.90;0.20;;;9.70;99.90;;;;;;5094547;28;20504;-62
2023/03/14 06:11:50;;;;;;;0.60;0.20;;;9.70;99.90;;;;;;5093898;28;20522;-62
2023/03/14 06:14:18;;;;;;;1.40;0.20;;;9.70;99.90;;;;;;5093903;28;20802;-61
2023/03/14 06:16:45;;;;;;;0.57;0.28;;;9.70;99.90;;;;;;5094569;28;20428;-61
2023/03/14 06:19:12;;;;;;;0.45;0.20;;;9.70;99.90;;;;;;5094410;28;20510;-63
2023/03/14 06:21:39;;;;;;;0.40;0.20;;;9.70;99.90;;;;;;5093082;28;20426;-65
2023/03/14 06:24:08;;;;;;;0.97;0.30;;;9.70;99.90;;;;;;5092522;28;20759;-63
2023/03/14 06:26:35;;;;;;;0.50;0.20;;;9.60;99.90;;;;;;5092419;28;20434;-63
2023/03/14 06:29:03;;;;;;;0.50;0.20;;;9.60;99.90;;;;;;5092512;28;20706;-63
2023/03/14 06:31:30;;;;;;;1.40;0.20;;;9.70;99.90;;;;;;5092033;28;20426;-63
2023/03/14 06:33:57;;;;;;;0.80;0.20;;;9.80;99.90;;;;;;5092218;28;20466;-63
2023/03/14 06:36:25;;;;;;;0.30;0.10;;;9.80;99.90;;;;;;5091611;28;20437;-63
2023/03/14 06:38:52;;;;;;;0.70;0.20;;;9.90;99.90;;;;;;5090080;28;20423;-65
2023/03/14 06:41:23;;;;;;;1.85;0.30;;;9.90;99.90;;;;;;5092777;28;20854;-65
2023/03/14 06:43:50;;;;;;;0.60;0.20;;;10.00;99.90;;;;;;5092213;28;21055;-64
2023/03/14 06:46:18;;;;;;;0.50;0.20;;;10.00;99.90;;;;;;5091826;28;20441;-64
2023/03/14 06:48:45;;;;;;;0.63;0.50;;;9.90;99.90;;;;;;5091876;28;20917;-64
2023/03/14 06:51:12;;;;;;;1.30;0.20;;;9.90;99.90;;;;;;5092855;28;20409;-64
2023/03/14 06:53:39;;;;;;;0.60;0.20;;;9.90;99.90;;;;;;5092261;28;20410;-64
2023/03/14 06:56:08;;;;;;;0.50;0.20;;;9.90;99.90;;;;;;5097545;28;20516;-64
2023/03/14 06:58:36;;;;;;;1.10;0.20;;;10.10;99.90;;;;;;5094921;28;20424;-67
2023/03/14 07:01:03;;;;;;;0.80;0.15;;;10.10;99.90;;;;;;5093114;28;20908;-67
2023/03/14 07:03:31;;;;;;;0.40;0.20;;;10.10;99.90;;;;;;5092222;28;20421;-67
2023/03/14 07:05:59;;;;;;;0.30;0.20;;;10.30;99.90;;;;;;5094000;28;20855;-66
2023/03/14 07:08:26;;;;;;;0.43;0.20;;;10.30;99.90;;;;;;5089156;28;20414;-66
2023/03/14 07:10:53;;;;;;;0.40;0.10;;;10.40;99.90;;;;;;5093465;28;20526;-65
2023/03/14 07:13:21;;;;;;;1.08;0.20;;;10.40;99.90;;;;;;5093750;28;20420;-66
2023/03/14 07:15:49;;;;;;;1.10;0.10;;;10.50;99.90;;;;;;5094450;28;20674;-65
2023/03/14 07:18:16;;;;;;;0.40;0.10;;;10.60;99.90;;;;;;5093875;28;20729;-66
2023/03/14 07:20:45;;;;;;;0.40;0.10;;;10.80;99.90;;;;;;5094254;28;20854;-66
2023/03/14 07:23:12;;;;;;;0.60;0.10;;;10.80;99.90;;;;;;5093688;28;20414;-65
2023/03/14 07:25:40;;;;;;;0.30;0.10;;;10.80;99.90;;;;;;5095502;28;20992;-66
2023/03/14 07:28:07;;;;;;;0.40;0.20;;;10.90;99.90;;;;;;5093058;28;20436;-66
2023/03/14 07:30:34;;;;;;;0.40;0.10;;;11.00;99.90;;;;;;5093125;28;20421;-65
2023/03/14 07:33:03;;;;;;;0.63;0.13;;;11.10;99.90;;;;;;5095169;28;20430;-66
2023/03/14 07:35:30;;;;;;;0.40;0.20;;;11.20;99.90;;;;;;5087744;28;20418;-67
2023/03/14 07:38:00;;;;;;;0.40;0.10;;;11.20;99.90;;;;;;5077221;28;20595;-65
2023/03/14 07:40:27;;;;;;;0.40;0.10;;;11.30;99.90;;;;;;5088372;28;20421;-66
2023/03/14 07:42:55;;;;;;;0.50;0.20;;;11.40;99.90;;;;;;5093255;28;20422;-67
2023/03/14 07:45:22;;;;;;;0.30;0.10;;;11.50;99.90;;;;;;5091343;28;20894;-67
2023/03/14 07:47:49;;;;;;;0.47;0.10;;;11.50;99.90;;;;;;5092743;28;20426;-66
2023/03/14 07:50:19;;;;;;;0.30;0.10;;;11.70;99.90;;;;;;5090358;28;20414;-66
2023/03/14 07:52:46;;;;;;;0.40;0.10;;;11.80;99.90;;;;;;5090900;28;20429;-66
2023/03/14 07:55:13;;;;;;;0.40;0.10;;;11.90;99.90;;;;;;5091117;28;20414;-66
2023/03/14 07:57:40;;;;;;;0.77;0.13;;;11.80;99.90;;;;;;5094289;28;20429;-65
2023/03/14 08:00:09;;;;;;;0.40;0.10;;;11.90;99.90;;;;;;5094646;28;20426;-65
2023/03/14 08:02:37;;;;;;;0.30;0.10;;;11.90;99.90;;;;;;5094163;28;20426;-66
2023/03/14 08:05:04;;;;;;;0.60;0.10;;;11.80;99.90;;;;;;5093917;28;20496;-66
2023/03/14 08:07:33;;;;;;;0.40;0.10;;;11.80;99.90;;;;;;5094122;28;20425;-65
2023/03/14 08:10:00;;;;;;;0.30;0.10;;;11.80;99.90;;;;;;5094528;28;20425;-66
2023/03/14 08:12:27;;;;;;;0.40;0.10;;;12.00;99.90;;;;;;5092096;28;20425;-65
2023/03/14 08:14:54;;;;;;;0.40;0.10;;;12.10;99.90;;;;;;5093524;28;20501;-64
2023/03/14 08:17:21;;;;;;;0.50;0.10;;;12.20;99.90;;;;;;5092831;28;20464;-65
2023/03/14 08:19:49;;;;;;;0.40;0.17;;;12.20;99.90;;;;;;5091027;28;20422;-65
2023/03/14 08:22:16;;;;;;;0.40;0.20;;;12.20;99.90;;;;;;5093332;28;20425;-66
2023/03/14 08:24:44;;;;;;;0.30;0.10;;;12.30;99.90;;;;;;5092885;28;20504;-67
2023/03/14 08:27:11;;;;;;;0.40;0.10;;;12.40;99.90;;;;;;5093677;28;20425;-66
2023/03/14 08:29:41;;;;;;;0.30;0.10;;;12.40;99.90;;;;;;5093166;28;20798;-66
2023/03/14 08:32:08;;;;;;;0.67;0.10;;;12.60;99.90;;;;;;5093757;28;21025;-67
2023/03/14 08:34:35;;;;;;;0.40;0.10;;;12.70;99.90;;;;;;5093616;28;20414;-67
2023/03/14 08:37:02;;;;;;;0.40;0.10;;;12.90;99.90;;;;;;5091829;28;20418;-66
2023/03/14 08:39:29;;;;;;;0.30;0.10;;;13.00;99.90;;;;;;5092931;28;20432;-67
2023/03/14 08:41:58;;;;;;;0.40;0.10;;;13.00;99.90;;;;;;5091222;28;21062;-66
2023/03/14 08:44:25;;;;;;;0.30;0.10;;;13.00;99.90;;;;;;5093020;28;20482;-66
2023/03/14 08:46:52;;;;;;;0.40;0.10;;;13.00;99.90;;;;;;5090337;28;20432;-64
2023/03/14 08:49:20;;;;;;;0.30;0.10;;;12.80;99.90;;;;;;5092339;28;20428;-64
2023/03/14 08:51:47;;;;;;;0.30;0.10;;;12.90;99.90;;;;;;5091193;28;20428;-61
2023/03/14 08:54:14;;;;;;;0.70;0.10;;;12.80;99.90;;;;;;5092809;28;20414;-63
2023/03/14 08:56:41;;;;;;;0.38;0.10;;;12.70;99.90;;;;;;5091405;28;20488;-63
2023/03/14 08:59:10;;;;;;;0.30;0.10;;;12.70;99.90;;;;;;5090674;28;20405;-61
2023/03/14 09:01:38;;;;;;;0.60;0.10;;;12.70;99.90;;;;;;5091282;28;20789;-61
2023/03/14 09:04:06;;;;;;;0.50;0.10;;;12.80;99.90;;;;;;5092763;28;20428;-61
2023/03/14 09:06:33;;;;;;;0.40;0.10;;;12.90;99.90;;;;;;5093851;28;20430;-61
2023/03/14 09:09:01;;;;;;;0.30;0.10;;;12.90;99.90;;;;;;5093194;28;20418;-62
2023/03/14 09:11:28;;;;;;;0.30;0.10;;;12.90;99.90;;;;;;5092358;28;20555;-60
2023/03/14 09:13:55;;;;;;;0.50;0.10;;;12.70;99.90;;;;;;5091063;28;20422;-60
2023/03/14 09:16:24;;;;;;;0.30;0.10;;;12.60;99.90;;;;;;5092526;28;20745;-60
2023/03/14 09:18:54;;;;;;;0.80;0.10;;;12.50;99.90;;;;;;5092715;28;20414;-61
2023/03/14 09:21:21;;;;;;;0.30;0.10;;;12.70;99.90;;;;;;5092113;28;20829;-60
2023/03/14 09:23:48;;;;;;;0.40;0.20;;;12.90;99.90;;;;;;5091961;28;20911;-60
2023/03/14 09:26:15;;;;;;;0.40;0.10;;;12.90;99.90;;;;;;5092396;28;20795;-61
2023/03/14 09:28:43;;;;;;;0.60;0.10;;;13.10;99.90;;;;;;5090396;28;20425;-59
2023/03/14 09:31:12;;;;;;;0.50;0.10;;;13.30;99.90;;;;;;5092455;28;20520;-59
2023/03/14 09:33:40;;;;;;;0.40;0.20;;;13.40;99.90;;;;;;5091443;28;20422;-59
2023/03/14 09:39:29;;;;;;;0.40;0.10;;;13.60;99.90;;;;;;5093062;28;20373;-61
2023/03/14 09:42:02;;;;;;;0.50;0.22;;;13.40;99.90;;;;;;5091516;28;20721;-60
2023/03/14 09:44:31;;;;;;;0.73;0.30;;;13.20;99.90;;;;;;5084279;28;20832;-60
2023/03/14 09:47:03;;;;;;;0.90;0.20;;;13.20;99.90;;;;;;5090807;28;20425;-60
2023/03/14 09:49:36;;;;;;;0.30;0.10;;;13.10;99.90;;;;;;5091906;28;20406;-59
2023/03/14 09:52:11;;;;;;;0.57;0.20;;;13.00;99.90;;;;;;5088890;28;20810;-59
2023/03/14 09:54:41;;;;;;;0.60;0.10;;;13.00;99.90;;;;;;5089631;28;20410;-63
2023/03/14 09:57:14;;;;;;;0.40;0.13;;;13.10;99.90;;;;;;5090920;28;20428;-61
2023/03/14 09:59:45;;;;;;;1.00;0.40;;;13.20;99.90;;;;;;5092340;28;21034;-60
2023/03/14 10:02:16;;;;;;;0.30;0.10;;;13.30;99.90;;;;;;5090580;28;20512;-57
2023/03/14 10:04:46;;;;;;;0.40;0.10;;;13.10;99.90;;;;;;5091580;28;20834;-55
2023/03/14 10:07:19;;;;;;;0.50;0.20;;;13.00;99.90;;;;;;5093122;28;20422;-55
2023/03/14 10:09:48;;;;;;;0.60;0.10;;;13.00;99.90;;;;;;5086104;28;20434;-55
2023/03/14 10:12:15;;;;;;;0.30;0.10;;;12.90;99.90;;;;;;5091075;28;20414;-55
2023/03/14 10:14:49;;;;;;;0.40;0.20;;;12.90;99.90;;;;;;5089937;28;20421;-56
2023/03/14 10:17:16;;;;;;;1.98;0.50;;;13.10;99.90;;;;;;5089531;28;20475;-55
2023/03/14 10:19:56;;;;;;;0.40;0.10;;;13.50;99.90;;;;;;5088726;28;20509;-57
2023/03/14 10:22:26;;;;;;;0.40;0.10;;;13.80;99.90;;;;;;5089610;28;20414;-58
2023/03/14 10:24:56;;;;;;;0.90;0.20;;;13.80;99.90;;;;;;5086275;28;20496;-58
2023/03/14 10:27:29;;;;;;;0.73;0.10;;;13.90;99.90;;;;;;5089758;28;20422;-58
2023/03/14 10:29:58;;;;;;;0.70;0.10;;;14.10;99.90;;;;;;5093838;28;20901;-59
2023/03/14 10:32:33;;;;;;;0.30;0.10;;;14.10;99.90;;;;;;5092594;28;20429;-59
2023/03/14 10:35:22;;;;;;;0.40;0.10;;;14.10;99.90;;;;;;5095049;28;20420;-59
2023/03/14 10:37:52;;;;;;;0.30;0.10;;;13.90;99.90;;;;;;5093227;28;20426;-59
2023/03/14 10:40:21;;;;;;;0.35;0.10;;;13.70;99.90;;;;;;5095616;28;20879;-59
2023/03/14 10:42:51;;;;;;;0.70;0.10;;;13.60;99.90;;;;;;5094070;28;20810;-57
2023/03/14 10:45:32;;;;;;;0.30;0.10;;;13.70;99.90;;;;;;5092156;28;20473;-55
2023/03/14 10:48:07;;;;;;;0.40;0.20;;;13.70;99.90;;;;;;5095832;28;20995;-59
2023/03/14 10:50:36;;;;;;;0.50;0.10;;;13.80;99.90;;;;;;5096249;28;20489;-57
2023/03/14 10:53:05;;;;;;;0.30;0.10;;;13.80;99.90;;;;;;5084921;28;20431;-57
2023/03/14 10:55:41;;;;;;;0.30;0.10;;;14.10;99.90;;;;;;5095370;28;20483;-57
2023/03/14 10:58:22;;;;;;;0.40;0.10;;;14.00;99.90;;;;;;5095192;28;20800;-55
2023/03/14 11:01:03;;;;;;;0.30;0.10;;;14.10;99.90;;;;;;5094744;28;20945;-55
2023/03/14 11:03:33;;;;;;;0.70;0.20;;;14.00;99.90;;;;;;5091499;28;20433;-56
2023/03/14 11:06:07;;;;;;;0.40;0.10;;;13.90;99.90;;;;;;5094334;28;20436;-52
2023/03/14 11:08:43;;;;;;;0.50;0.20;;;13.90;99.90;;;;;;5091661;28;20946;-56
2023/03/14 11:11:19;;;;;;;0.40;0.10;;;13.80;99.90;;;;;;5072632;28;20424;-55
2023/03/14 11:13:56;;;;;;;0.50;0.10;;;13.60;99.90;;;;;;5073854;28;20847;-56
2023/03/14 11:16:28;;;;;;;0.40;0.10;;;13.50;99.90;;;;;;5093866;28;20441;-56
2023/03/14 11:19:09;;;;;;;0.40;0.20;;;13.40;99.90;;;;;;5095383;28;20418;-52
2023/03/14 11:21:46;;;;;;;1.20;0.10;;;13.40;99.90;;;;;;5094553;28;20465;-54
2023/03/14 11:24:34;;;;;;;0.30;0.10;;;13.00;99.90;;;;;;5088392;28;20437;-53
2023/03/14 11:27:07;;;;;;;0.40;0.10;;;12.90;99.90;;;;;;5075427;28;20434;-53
2023/03/14 11:29:40;;;;;;;0.30;0.10;;;12.70;99.90;;;;;;5074119;28;20420;-52
2023/03/14 11:32:14;;;;;;;0.30;0.10;;;12.60;99.90;;;;;;5071609;28;20424;-52
2023/03/14 11:34:48;;;;;;;0.32;0.10;;;12.40;99.90;;;;;;5087678;28;20434;-54
2023/03/14 11:37:24;;;;;;;0.68;0.20;;;12.50;99.90;;;;;;5093191;28;20736;-52
2023/03/14 11:40:00;;;;;;;0.50;0.10;;;12.50;99.90;;;;;;5089625;28;20426;-56
2023/03/14 11:42:29;;;;;;;0.50;0.10;;;12.50;99.90;;;;;;5091851;28;20431;-56
2023/03/14 11:44:58;;;;;;;0.30;0.10;;;12.50;99.90;;;;;;5092637;28;20418;-54
2023/03/14 11:47:29;;;;;;;0.50;0.20;;;12.40;99.90;;;;;;5092699;28;20839;-57
2023/03/14 11:50:02;;;;;;;1.40;0.20;;;12.60;99.90;;;;;;5092306;28;20432;-56
2023/03/14 11:52:35;;;;;;;0.30;0.10;;;12.70;99.90;;;;;;5090289;28;20821;-55
2023/03/14 11:55:11;;;;;;;0.40;0.10;;;12.60;99.90;;;;;;5090350;28;20410;-53
2023/03/14 11:57:40;;;;;;;0.30;0.10;;;12.60;99.90;;;;;;5089989;28;20588;-56
2023/03/14 12:00:16;;;;;;;0.38;0.10;;;12.50;99.90;;;;;;5089044;28;20422;-51
2023/03/14 12:02:52;;;;;;;0.93;0.15;;;12.40;99.90;;;;;;5090765;28;20445;-57
2023/03/14 12:05:38;;;;;;;0.57;0.10;;;12.40;99.90;;;;;;5090189;28;20433;-53
2023/03/14 12:08:30;;;;;;;0.47;0.10;;;12.60;99.90;;;;;;5092081;28;20509;-53
2023/03/14 12:11:02;;;;;;;0.50;0.10;;;12.90;99.90;;;;;;5092109;28;20420;-55
2023/03/14 12:13:33;;;;;;;0.50;0.20;;;13.10;99.90;;;;;;5093511;28;20741;-53
2023/03/14 12:16:04;;;;;;;0.30;0.10;;;12.90;99.90;;;;;;5089028;28;20426;-56
2023/03/14 12:18:34;;;;;;;0.35;0.10;;;12.60;99.90;;;;;;5089510;28;20690;-56
2023/03/14 12:21:04;;;;;;;0.32;0.10;;;12.60;99.90;;;;;;5089726;28;20430;-56
2023/03/14 12:23:40;;;;;;;0.32;0.10;;;12.50;99.90;;;;;;5091178;28;20417;-56
2023/03/14 12:26:17;;;;;;;0.30;0.10;;;12.70;99.90;;;;;;5089446;28;20544;-53
2023/03/14 12:28:50;;;;;;;0.40;0.10;;;12.80;99.90;;;;;;5090456;28;20417;-51
2023/03/14 12:31:42;;;;;;;0.40;0.10;;;13.20;99.90;;;;;;5090091;28;20491;-56
2023/03/14 12:34:30;;;;;;;0.30;0.10;;;13.30;99.90;;;;;;5091127;28;20861;-54
2023/03/14 12:37:17;;;;;;;0.30;0.10;;;13.10;99.90;;;;;;5091730;28;20453;-53
2023/03/14 12:39:56;;;;;;;0.30;0.10;;;12.50;99.90;;;;;;5087266;28;20431;-56
2023/03/14 12:42:39;;;;;;;0.30;0.10;;;12.30;99.90;;;;;;5073407;28;20431;-55
2023/03/14 12:45:31;;;;;;;0.30;0.10;;;12.20;99.90;;;;;;5073473;28;20430;-51
2023/03/14 12:48:17;;;;;;;0.50;0.10;;;12.20;99.90;;;;;;5068360;28;20459;-53
2023/03/14 12:50:46;;;;;;;0.40;0.10;;;12.50;99.90;;;;;;5072030;28;20442;-55
2023/03/14 12:53:50;;;;;;;0.47;0.20;;;12.70;99.90;;;;;;5070951;28;20417;-55
2023/03/14 12:56:27;;;;;;;0.30;0.10;;;13.00;99.90;;;;;;5043053;28;20423;-53
2023/03/14 12:59:27;;;;;;;0.30;0.20;;;12.80;99.90;;;;;;5071197;28;20412;-53
2023/03/14 13:01:57;;;;;;;0.50;0.20;;;12.60;99.90;;;;;;5056951;28;20450;-49
2023/03/14 13:04:30;;;;;;;0.40;0.20;;;12.50;99.90;;;;;;5069944;28;20419;-52